CW6294 Weather Reports


time (UTC)temp
F
wind
direction
speed
knots
gust
knots
rain 1hr
in
rain 24hr
in
rain mn
in
humidity
%
barometer
mb
20240222120400 33 130 0.0 0.0 0.00 0.00 0.00 98 1017.5
20240222113358 33 121 0.0 0.0 0.00 0.00 0.00 98 1017.6
20240222110358 33 122 0.0 0.0 0.00 0.00 0.00 98 1018.0
20240222104751 34 121 0.0 0.0 0.00 0.00 0.00 98 1018.5
20240222100353 34 122 0.0 0.0 0.00 0.00 0.00 97 1018.6
20240222093344 34 122 0.0 0.0 0.00 0.00 0.00 97 1019.1
20240222090329 33 122 0.0 0.0 0.00 0.00 0.00 96 1019.5
20240222083329 34 122 0.0 0.0 0.00 0.00 0.00 96 1019.6
20240222080318 34 122 0.0 0.0 0.00 0.00 0.00 95 1019.6
20240222073242 35 122 0.0 0.0 0.00 0.00 0.00 94 1019.9
20240222070226 35 122 0.0 0.0 0.00 0.00 0.00 94 1020.4
20240222063232 35 123 0.0 1.7 0.00 0.00 0.00 93 1020.5
20240222060224 36 125 0.0 0.0 0.00 0.00 0.00 93 1020.7
20240222053156 36 119 0.0 0.0 0.00 0.00 0.00 92 1021.1
20240222050115 37 123 0.0 5.2 0.00 0.00 0.00 91 1021.4
20240222043106 37 123 0.0 5.2 0.00 0.00 0.00 90 1022.0
20240222033056 38 94 2.6 11.3 0.00 0.00 0.00 87 1022.3
20240222030055 39 80 2.6 6.1 0.00 0.00 0.00 85 1022.7
20240222023053 40 107 0.0 7.0 0.00 0.00 0.00 81 1023.0
20240222020053 41 97 3.5 7.0 0.00 0.00 0.00 77 1022.7
20240222010040 42 77 0.0 4.3 0.00 0.00 0.00 74 1022.9
20240222003038 43 109 0.0 4.3 0.00 0.00 0.00 73 1023.0
20240222001417 43 96 0.0 5.2 0.00 0.00 0.00 72 1023.1
20240221233033 44 119 0.9 8.7 0.00 0.00 0.00 69 1022.9
20240221230030 45 105 1.7 7.8 0.00 0.00 0.00 67 1022.7
20240221223029 46 77 3.5 9.6 0.00 0.00 0.00 63 1022.9
20240221220025 48 100 3.5 9.6 0.00 0.00 0.00 61 1022.9
20240221213031 48 65 2.6 7.8 0.00 0.00 0.00 63 1023.1
20240221210005 49 81 2.6 7.0 0.00 0.00 0.00 60 1023.5
20240221202956 49 119 1.7 7.8 0.00 0.00 0.00 61 1023.5
20240221201335 50 74 1.7 7.8 0.00 0.00 0.00 60 1023.9
20240221192959 48 113 2.6 7.8 0.00 0.00 0.00 62 1024.5
20240221185939 49 53 0.9 7.0 0.00 0.00 0.00 62 1024.8
20240221175933 47 88 0.9 6.1 0.00 0.00 0.00 64 1025.6
20240221172931 46 111 1.7 7.0 0.00 0.00 0.00 65 1026.2
20240221165932 46 121 0.9 6.1 0.00 0.00 0.00 67 1027.1
20240221162922 44 63 2.6 7.0 0.00 0.00 0.00 69 1028.3
20240221155916 42 118 0.0 7.0 0.00 0.00 0.00 74 1028.6
20240221154304 41 59 1.7 6.1 0.00 0.00 0.00 75 1029.0
20240221145908 39 78 0.9 5.2 0.00 0.00 0.00 78 1029.4
20240221135914 37 69 2.6 6.1 0.00 0.00 0.00 87 1029.6
20240221132859 37 61 1.7 5.2 0.00 0.00 0.00 90 1029.2
20240221125905 34 68 0.0 0.0 0.00 0.00 0.00 96 1029.3
20240221122834 32 68 0.0 0.0 0.00 0.00 0.00 96 1028.9